createdAt,value
2018-06-30T00:01:36.816Z,19.10
2018-06-30T00:04:05.556Z,19.00
2018-06-30T00:06:34.138Z,19.10
2018-06-30T00:09:02.998Z,19.00
2018-06-30T00:11:31.839Z,19.00
2018-06-30T00:14:00.996Z,18.90
2018-06-30T00:16:29.828Z,19.00
2018-06-30T00:18:58.671Z,19.20
2018-06-30T00:21:27.603Z,19.00
2018-06-30T00:23:56.263Z,18.90
2018-06-30T00:26:24.753Z,18.60
2018-06-30T00:28:53.254Z,18.40
2018-06-30T00:31:21.761Z,18.20
2018-06-30T00:33:50.338Z,17.90
2018-06-30T00:36:18.856Z,17.50
2018-06-30T00:38:47.363Z,17.20
2018-06-30T00:41:16.416Z,16.90
2018-06-30T00:43:44.913Z,16.80
2018-06-30T00:46:13.399Z,16.70
2018-06-30T00:48:41.984Z,16.70
2018-06-30T00:51:10.504Z,16.80
2018-06-30T00:53:39.243Z,16.90
2018-06-30T00:56:08.079Z,16.90
2018-06-30T00:58:36.966Z,17.10
2018-06-30T01:01:05.941Z,17.10
2018-06-30T01:03:34.571Z,17.00
2018-06-30T01:06:03.159Z,17.00
2018-06-30T01:08:31.663Z,17.00
2018-06-30T01:11:00.192Z,17.00
2018-06-30T01:13:28.715Z,16.90
2018-06-30T01:15:57.232Z,16.90
2018-06-30T01:18:25.735Z,16.90
2018-06-30T01:20:54.268Z,16.80
2018-06-30T01:23:22.899Z,16.80
2018-06-30T01:25:51.426Z,16.80
2018-06-30T01:28:19.986Z,16.70
2018-06-30T01:30:48.495Z,16.70
2018-06-30T01:33:16.998Z,16.70
2018-06-30T01:35:45.513Z,16.70
2018-06-30T01:38:14.016Z,16.70
2018-06-30T01:40:42.543Z,16.60
2018-06-30T01:43:11.030Z,16.50
2018-06-30T01:45:39.540Z,16.40
2018-06-30T01:48:08.051Z,16.30
2018-06-30T01:50:36.571Z,16.20
2018-06-30T01:53:05.323Z,16.10
2018-06-30T01:55:34.180Z,16.00
2018-06-30T01:58:03.021Z,16.00
2018-06-30T02:00:31.849Z,16.00
2018-06-30T02:03:00.463Z,16.00
2018-06-30T02:05:29.018Z,16.10
2018-06-30T02:07:57.539Z,16.20
2018-06-30T02:10:26.016Z,16.20
2018-06-30T02:12:54.755Z,16.20
2018-06-30T02:15:23.583Z,16.10
2018-06-30T02:17:52.406Z,16.00
2018-06-30T02:20:21.253Z,16.30
2018-06-30T02:22:49.915Z,16.30
2018-06-30T02:25:18.428Z,16.20
2018-06-30T02:27:46.965Z,16.20
2018-06-30T02:30:15.448Z,16.20
2018-06-30T02:32:44.171Z,16.20
2018-06-30T02:35:13.013Z,16.10
2018-06-30T02:37:41.862Z,15.90
2018-06-30T02:40:10.786Z,15.80
2018-06-30T02:42:39.618Z,15.70
2018-06-30T02:45:08.577Z,15.60
2018-06-30T02:47:38.888Z,15.50
2018-06-30T02:50:08.116Z,15.50
2018-06-30T02:52:36.998Z,15.40
2018-06-30T02:55:05.999Z,15.40
2018-06-30T02:57:34.856Z,15.20
2018-06-30T03:00:03.838Z,15.00
2018-06-30T03:02:32.689Z,14.90
2018-06-30T03:05:01.528Z,14.80
2018-06-30T03:07:30.373Z,14.80
2018-06-30T03:09:59.188Z,14.80
2018-06-30T03:12:28.051Z,14.90
2018-06-30T03:14:56.941Z,14.90
2018-06-30T03:17:25.796Z,15.00
2018-06-30T03:19:54.703Z,15.00
2018-06-30T03:22:23.379Z,15.00
2018-06-30T03:24:52.116Z,15.00
2018-06-30T03:27:20.643Z,15.00
2018-06-30T03:29:49.211Z,15.00
2018-06-30T03:32:17.736Z,15.00
2018-06-30T03:34:46.223Z,15.10
2018-06-30T03:37:14.782Z,15.20
2018-06-30T03:39:43.271Z,15.20
2018-06-30T03:42:11.816Z,15.20
2018-06-30T03:44:40.384Z,15.30
2018-06-30T03:47:08.923Z,15.30
2018-06-30T03:49:37.486Z,15.30
2018-06-30T03:52:06.003Z,15.30
2018-06-30T03:54:34.478Z,15.30
2018-06-30T03:57:03.027Z,15.40
2018-06-30T03:59:31.568Z,15.40
2018-06-30T04:02:00.076Z,15.30
2018-06-30T04:04:28.606Z,15.20
2018-06-30T04:06:57.154Z,15.30
2018-06-30T04:09:25.706Z,15.40
2018-06-30T04:11:54.430Z,15.30
2018-06-30T04:14:23.300Z,15.40
2018-06-30T04:16:52.235Z,15.50
2018-06-30T04:19:21.048Z,15.60
2018-06-30T04:21:49.700Z,15.80
2018-06-30T04:24:18.183Z,16.10
2018-06-30T04:26:46.683Z,16.40
2018-06-30T04:29:15.254Z,16.60
2018-06-30T04:31:43.786Z,16.70
2018-06-30T04:34:12.340Z,16.90
2018-06-30T04:36:40.893Z,17.00
2018-06-30T04:39:10.026Z,17.00
2018-06-30T04:41:38.775Z,16.90
2018-06-30T04:44:07.706Z,16.90
2018-06-30T04:46:36.603Z,17.00
2018-06-30T04:49:05.448Z,17.10
2018-06-30T04:51:34.260Z,17.10
2018-06-30T04:54:03.123Z,17.00
2018-06-30T04:56:32.011Z,16.80
2018-06-30T04:59:00.883Z,16.90
2018-06-30T05:01:29.795Z,17.30
2018-06-30T05:03:58.663Z,17.60
2018-06-30T05:06:27.499Z,17.80
2018-06-30T05:08:56.365Z,18.00
2018-06-30T05:11:25.163Z,18.30
2018-06-30T05:13:54.400Z,18.50
2018-06-30T05:16:23.482Z,18.60
2018-06-30T05:18:52.345Z,18.70
2018-06-30T05:21:21.026Z,19.10
2018-06-30T05:23:49.534Z,19.50
2018-06-30T05:26:18.077Z,19.60
2018-06-30T05:28:46.595Z,19.50
2018-06-30T05:31:15.428Z,19.60
2018-06-30T05:33:44.398Z,19.90
2018-06-30T05:36:14.025Z,20.20
2018-06-30T05:38:43.490Z,20.50
2018-06-30T05:41:12.416Z,20.50
2018-06-30T05:43:41.378Z,20.70
2018-06-30T05:46:10.383Z,21.10
2018-06-30T05:48:40.303Z,21.40
2018-06-30T05:51:08.972Z,21.60
2018-06-30T05:53:37.540Z,22.00
2018-06-30T05:56:06.148Z,22.20
2018-06-30T05:58:34.808Z,22.00
2018-06-30T06:01:03.466Z,22.10
2018-06-30T06:03:32.049Z,22.50
2018-06-30T06:06:00.602Z,22.60
2018-06-30T06:08:29.310Z,22.80
2018-06-30T06:10:58.088Z,23.20
2018-06-30T06:13:26.968Z,23.30
2018-06-30T06:15:55.920Z,23.20
2018-06-30T06:18:24.773Z,23.50
2018-06-30T06:20:53.484Z,23.60
2018-06-30T06:23:22.101Z,23.90
2018-06-30T06:25:50.718Z,24.00
2018-06-30T06:28:19.365Z,24.10
2018-06-30T06:30:47.993Z,24.40
2018-06-30T06:33:18.286Z,24.60
2018-06-30T06:35:47.023Z,24.90
2018-06-30T06:38:15.958Z,25.00
2018-06-30T06:40:44.736Z,25.00
2018-06-30T06:43:13.603Z,24.90
2018-06-30T06:45:42.544Z,25.20
2018-06-30T06:48:11.464Z,25.30
2018-06-30T06:50:41.056Z,25.80
2018-06-30T06:53:09.954Z,25.90
2018-06-30T06:55:39.374Z,26.20
2018-06-30T06:58:08.291Z,26.00
2018-06-30T07:00:36.980Z,26.00
2018-06-30T07:03:05.687Z,26.00
2018-06-30T07:05:34.212Z,26.10
2018-06-30T07:08:03.064Z,26.40
2018-06-30T07:10:31.651Z,26.70
2018-06-30T07:13:00.428Z,26.90
2018-06-30T07:15:29.002Z,27.00
2018-06-30T07:17:57.581Z,27.30
2018-06-30T07:20:26.774Z,27.10
2018-06-30T07:22:55.807Z,26.90
2018-06-30T07:25:24.846Z,27.10
2018-06-30T07:27:53.712Z,27.20
2018-06-30T07:30:22.616Z,27.70
2018-06-30T07:32:51.328Z,27.70
2018-06-30T07:35:19.821Z,27.90
2018-06-30T07:37:48.352Z,27.80
2018-06-30T07:40:16.863Z,27.90
2018-06-30T07:42:45.624Z,28.00
2018-06-30T07:45:14.461Z,28.10
2018-06-30T07:47:43.315Z,28.20
2018-06-30T07:50:12.202Z,28.20
2018-06-30T07:52:41.191Z,28.30
2018-06-30T07:55:09.994Z,28.60
2018-06-30T07:57:38.611Z,28.70
2018-06-30T08:00:07.195Z,28.80
2018-06-30T08:02:35.794Z,28.50
2018-06-30T08:05:04.796Z,28.40
2018-06-30T08:07:33.348Z,28.60
2018-06-30T08:10:02.001Z,28.80
2018-06-30T08:12:30.534Z,29.20
2018-06-30T08:14:59.151Z,29.30
2018-06-30T08:17:27.783Z,29.20
2018-06-30T08:19:56.296Z,29.30
2018-06-30T08:22:25.031Z,29.40
2018-06-30T08:27:22.935Z,29.50
2018-06-30T08:29:51.928Z,29.90
2018-06-30T08:32:20.854Z,29.80
2018-06-30T08:34:49.581Z,29.70
2018-06-30T08:37:18.191Z,29.60
2018-06-30T08:39:46.753Z,29.80
2018-06-30T08:42:15.341Z,30.30
2018-06-30T08:44:44.242Z,30.30
2018-06-30T08:47:13.094Z,30.60
2018-06-30T08:49:41.961Z,30.70
2018-06-30T08:52:10.905Z,30.50
2018-06-30T08:54:39.896Z,30.40
2018-06-30T08:57:08.857Z,30.40
2018-06-30T08:59:38.203Z,30.80
2018-06-30T09:02:07.059Z,31.00
2018-06-30T09:04:35.963Z,31.00
2018-06-30T09:07:04.709Z,31.00
2018-06-30T09:09:33.279Z,31.50
2018-06-30T09:12:01.972Z,31.50
2018-06-30T09:14:30.501Z,31.90
2018-06-30T09:16:59.101Z,32.00
2018-06-30T09:19:27.748Z,32.00
2018-06-30T09:21:56.366Z,32.10
2018-06-30T09:24:24.982Z,31.80
2018-06-30T09:26:53.886Z,32.00
2018-06-30T09:29:22.758Z,32.40
2018-06-30T09:31:51.690Z,32.60
2018-06-30T09:34:20.676Z,33.00
2018-06-30T09:36:49.341Z,32.90
2018-06-30T09:39:17.966Z,32.90
2018-06-30T09:41:46.598Z,32.80
2018-06-30T09:44:15.213Z,32.90
2018-06-30T09:46:43.944Z,33.40
2018-06-30T09:49:12.581Z,33.60
2018-06-30T09:51:41.303Z,33.90
2018-06-30T09:54:09.925Z,33.90
2018-06-30T09:56:38.678Z,33.90
2018-06-30T09:59:07.786Z,33.70
2018-06-30T10:01:36.731Z,33.90
2018-06-30T10:04:05.693Z,34.30
2018-06-30T10:06:34.626Z,33.90
2018-06-30T10:09:05.620Z,34.00
2018-06-30T10:11:34.969Z,34.10
2018-06-30T10:14:03.704Z,34.50
2018-06-30T10:16:32.433Z,34.20
2018-06-30T10:19:01.289Z,34.80
2018-06-30T10:21:29.956Z,34.60
2018-06-30T10:23:58.923Z,34.70
2018-06-30T10:26:27.905Z,34.60
2018-06-30T10:28:56.975Z,34.70
2018-06-30T10:31:25.931Z,34.80
2018-06-30T10:33:54.915Z,35.00
2018-06-30T10:36:23.892Z,34.80
2018-06-30T10:38:52.822Z,34.50
2018-06-30T10:41:21.772Z,34.40
2018-06-30T10:43:50.710Z,34.50
2018-06-30T10:46:19.686Z,34.80
2018-06-30T10:48:48.679Z,35.00
2018-06-30T10:51:17.658Z,34.90
2018-06-30T10:53:46.558Z,34.80
2018-06-30T10:56:15.449Z,34.80
2018-06-30T10:58:44.346Z,35.00
2018-06-30T11:01:13.477Z,35.30
2018-06-30T11:03:43.539Z,35.50
2018-06-30T11:06:12.417Z,35.40
2018-06-30T11:08:41.386Z,34.90
2018-06-30T11:11:10.424Z,35.00
2018-06-30T11:13:39.365Z,35.40
2018-06-30T11:16:09.121Z,35.50
2018-06-30T11:18:38.127Z,35.60
2018-06-30T11:21:07.102Z,35.90
2018-06-30T11:23:36.352Z,36.00
2018-06-30T11:26:05.261Z,36.40
2018-06-30T11:28:34.196Z,35.90
2018-06-30T11:31:03.148Z,36.10
2018-06-30T11:33:31.836Z,36.10
2018-06-30T11:36:00.416Z,36.40
2018-06-30T11:38:29.036Z,36.40
2018-06-30T11:40:58.181Z,36.30
2018-06-30T11:43:27.013Z,36.20
2018-06-30T11:45:55.941Z,36.60
2018-06-30T11:48:25.283Z,36.50
2018-06-30T11:50:54.258Z,36.00
2018-06-30T11:53:23.009Z,35.70
2018-06-30T11:55:51.866Z,36.10
2018-06-30T12:00:49.135Z,35.50
2018-06-30T12:03:17.974Z,35.70
2018-06-30T12:05:47.519Z,35.30
2018-06-30T12:08:16.553Z,35.40
2018-06-30T12:10:45.521Z,35.80
2018-06-30T12:13:14.578Z,36.20
2018-06-30T12:15:43.560Z,36.30
2018-06-30T12:18:12.526Z,36.00
2018-06-30T12:20:42.437Z,36.50
2018-06-30T12:23:11.777Z,36.50
2018-06-30T12:25:40.669Z,36.60
2018-06-30T12:28:09.285Z,36.90
2018-06-30T12:30:37.871Z,37.00
2018-06-30T12:33:07.408Z,36.90
2018-06-30T12:35:36.452Z,37.70
2018-06-30T12:38:05.625Z,37.50
2018-06-30T12:40:34.601Z,37.30
2018-06-30T12:43:03.759Z,37.20
2018-06-30T12:45:32.416Z,37.00
2018-06-30T12:48:00.984Z,37.30
2018-06-30T12:50:29.639Z,36.90
2018-06-30T12:52:58.345Z,37.00
2018-06-30T12:55:27.696Z,36.50
2018-06-30T12:57:56.492Z,36.90
2018-06-30T13:00:25.171Z,37.10
2018-06-30T13:02:53.911Z,37.60
2018-06-30T13:05:22.611Z,37.60
2018-06-30T13:07:51.769Z,37.90
2018-06-30T13:10:20.514Z,37.70
2018-06-30T13:12:49.741Z,37.00
2018-06-30T13:15:18.893Z,37.50
2018-06-30T13:17:48.859Z,37.70
2018-06-30T13:20:18.007Z,37.80
2018-06-30T13:22:47.058Z,37.90
2018-06-30T13:25:16.393Z,37.70
2018-06-30T13:27:45.094Z,37.50
2018-06-30T13:30:13.742Z,37.60
2018-06-30T13:32:42.441Z,37.00
2018-06-30T13:35:11.116Z,36.90
2018-06-30T13:37:39.821Z,36.90
2018-06-30T13:40:08.526Z,36.50
2018-06-30T13:42:37.138Z,36.40
2018-06-30T13:45:07.493Z,36.60
2018-06-30T13:47:36.143Z,36.90
2018-06-30T13:50:06.507Z,37.10
2018-06-30T13:52:35.729Z,37.20
2018-06-30T13:55:05.081Z,37.30
2018-06-30T13:57:34.689Z,37.20
2018-06-30T14:00:04.521Z,37.00
2018-06-30T14:02:33.458Z,37.00
2018-06-30T14:05:02.371Z,36.80
2018-06-30T14:07:31.415Z,36.70
2018-06-30T14:10:01.528Z,37.00
2018-06-30T14:12:30.475Z,37.40
2018-06-30T14:14:59.409Z,37.50
2018-06-30T14:17:28.508Z,36.70
2018-06-30T14:19:57.536Z,36.70
2018-06-30T14:22:26.601Z,36.70
2018-06-30T14:24:55.593Z,36.50
2018-06-30T14:27:25.066Z,36.50
2018-06-30T14:29:54.633Z,36.70
2018-06-30T14:32:24.351Z,36.60
2018-06-30T14:34:53.027Z,36.00
2018-06-30T14:37:21.950Z,36.30
2018-06-30T14:39:50.872Z,36.40
2018-06-30T14:42:19.918Z,36.50
2018-06-30T14:44:48.907Z,36.50
2018-06-30T14:47:17.887Z,36.70
2018-06-30T14:49:46.825Z,36.70
2018-06-30T14:52:15.835Z,36.50
2018-06-30T14:54:44.768Z,36.70
2018-06-30T14:57:13.504Z,36.80
2018-06-30T14:59:42.178Z,37.20
2018-06-30T15:02:10.848Z,36.90
2018-06-30T15:04:39.461Z,36.80
2018-06-30T15:07:08.138Z,36.70
2018-06-30T15:09:36.926Z,37.10
2018-06-30T15:12:06.708Z,37.20
2018-06-30T15:14:35.361Z,36.70
2018-06-30T15:17:04.306Z,36.30
2018-06-30T15:19:32.993Z,36.50
2018-06-30T15:22:01.741Z,36.80
2018-06-30T15:24:30.961Z,37.10
2018-06-30T15:26:59.613Z,37.20
2018-06-30T15:29:28.418Z,36.50
2018-06-30T15:31:57.386Z,36.10
2018-06-30T15:34:26.256Z,36.50
2018-06-30T15:36:55.103Z,36.50
2018-06-30T15:39:23.789Z,36.80
2018-06-30T15:41:52.315Z,36.80
2018-06-30T15:44:20.861Z,36.70
2018-06-30T15:46:49.425Z,36.50
2018-06-30T15:49:18.071Z,35.90
2018-06-30T15:51:46.626Z,35.80
2018-06-30T15:54:15.305Z,36.10
2018-06-30T15:56:43.939Z,36.00
2018-06-30T16:01:41.453Z,35.50
2018-06-30T16:04:10.436Z,35.80
2018-06-30T16:06:39.313Z,35.60
2018-06-30T16:09:10.503Z,35.40
2018-06-30T16:11:39.068Z,35.20
2018-06-30T16:14:08.471Z,35.40
2018-06-30T16:16:37.617Z,35.10
2018-06-30T16:19:06.165Z,35.00
2018-06-30T16:21:35.151Z,34.90
2018-06-30T16:24:04.036Z,34.90
2018-06-30T16:26:33.031Z,35.10
2018-06-30T16:29:02.047Z,35.10
2018-06-30T16:31:31.039Z,34.90
2018-06-30T16:34:00.030Z,35.00
2018-06-30T16:36:28.939Z,34.50
2018-06-30T16:38:57.806Z,34.30
2018-06-30T16:41:26.723Z,34.10
2018-06-30T16:43:56.571Z,33.90
2018-06-30T16:46:25.881Z,33.60
2018-06-30T16:48:54.783Z,33.50
2018-06-30T16:51:23.655Z,33.30
2018-06-30T16:53:52.528Z,33.10
2018-06-30T16:56:21.456Z,32.90
2018-06-30T16:58:50.430Z,32.70
2018-06-30T17:01:19.413Z,32.90
2018-06-30T17:03:48.348Z,32.90
2018-06-30T17:06:17.263Z,32.90
2018-06-30T17:08:46.076Z,32.60
2018-06-30T17:11:15.001Z,32.30
2018-06-30T17:13:43.886Z,32.00
2018-06-30T17:16:12.798Z,31.80
2018-06-30T17:18:41.793Z,31.50
2018-06-30T17:21:10.686Z,31.20
2018-06-30T17:23:39.376Z,31.00
2018-06-30T17:26:07.967Z,30.80
2018-06-30T17:28:36.535Z,30.80
2018-06-30T17:31:05.104Z,30.70
2018-06-30T17:33:33.651Z,30.70
2018-06-30T17:36:06.596Z,30.60
2018-06-30T17:38:35.218Z,30.50
2018-06-30T17:41:03.833Z,30.40
2018-06-30T17:43:32.596Z,30.30
2018-06-30T17:46:01.542Z,30.20
2018-06-30T17:48:30.466Z,30.10
2018-06-30T17:50:59.423Z,29.90
2018-06-30T17:53:28.099Z,29.70
2018-06-30T17:55:56.666Z,29.50
2018-06-30T17:58:25.338Z,29.30
2018-06-30T18:00:55.198Z,29.20
2018-06-30T18:03:24.085Z,28.90
2018-06-30T18:05:54.722Z,28.90
2018-06-30T18:08:23.650Z,28.80
2018-06-30T18:10:52.320Z,28.50
2018-06-30T18:13:21.107Z,28.40
2018-06-30T18:15:49.718Z,28.50
2018-06-30T18:18:18.345Z,28.50
2018-06-30T18:20:47.199Z,28.40
2018-06-30T18:23:16.065Z,28.30
2018-06-30T18:25:44.955Z,28.40
2018-06-30T18:28:13.886Z,28.40
2018-06-30T18:30:42.537Z,28.20
2018-06-30T18:33:11.110Z,28.00
2018-06-30T18:35:39.648Z,27.80
2018-06-30T18:38:08.282Z,27.60
2018-06-30T18:40:36.883Z,27.50
2018-06-30T18:43:05.559Z,27.40
2018-06-30T18:45:34.242Z,27.30
2018-06-30T18:48:03.471Z,27.50
2018-06-30T18:50:32.291Z,27.80
2018-06-30T18:53:02.156Z,27.90
2018-06-30T18:55:31.146Z,27.60
2018-06-30T18:58:00.196Z,27.30
2018-06-30T19:00:28.944Z,27.10
2018-06-30T19:02:57.588Z,26.90
2018-06-30T19:05:26.205Z,26.90
2018-06-30T19:07:55.113Z,26.60
2018-06-30T19:10:23.766Z,26.50
2018-06-30T19:12:52.368Z,26.40
2018-06-30T19:15:20.968Z,26.20
2018-06-30T19:17:49.608Z,26.00
2018-06-30T19:20:18.405Z,25.80
2018-06-30T19:22:47.160Z,25.60
2018-06-30T19:25:15.768Z,25.50
2018-06-30T19:27:44.476Z,25.50
2018-06-30T19:30:13.272Z,25.40
2018-06-30T19:32:42.203Z,25.30
2018-06-30T19:35:11.079Z,25.20
2018-06-30T19:37:40.036Z,25.20
2018-06-30T19:40:09.212Z,25.10
2018-06-30T19:42:38.131Z,25.00
2018-06-30T19:45:07.046Z,24.90
2018-06-30T19:47:36.095Z,24.80
2018-06-30T19:50:05.633Z,24.70
2018-06-30T19:52:34.522Z,24.80
2018-06-30T19:55:04.573Z,24.60
2018-06-30T19:57:33.448Z,24.50
2018-06-30T20:00:02.165Z,24.40
2018-06-30T20:02:30.708Z,24.30
2018-06-30T20:04:59.243Z,24.30
2018-06-30T20:07:27.855Z,24.10
2018-06-30T20:09:56.670Z,24.00
2018-06-30T20:12:25.618Z,23.90
2018-06-30T20:14:54.498Z,23.90
2018-06-30T20:17:23.443Z,23.80
2018-06-30T20:19:52.138Z,23.70
2018-06-30T20:22:20.771Z,23.70
2018-06-30T20:24:49.349Z,23.70
2018-06-30T20:27:18.001Z,23.60
2018-06-30T20:29:46.588Z,23.60
2018-06-30T20:32:15.225Z,23.50
2018-06-30T20:34:43.833Z,23.50
2018-06-30T20:39:41.582Z,23.40
2018-06-30T20:42:10.881Z,23.30
2018-06-30T20:44:39.785Z,23.00
2018-06-30T20:47:08.768Z,22.80
2018-06-30T20:49:38.348Z,22.80
2018-06-30T20:52:07.514Z,22.60
2018-06-30T20:54:36.463Z,22.70
2018-06-30T20:57:05.494Z,22.70
2018-06-30T20:59:34.593Z,22.80
2018-06-30T21:02:03.741Z,22.80
2018-06-30T21:04:32.755Z,22.70
2018-06-30T21:07:01.747Z,22.70
2018-06-30T21:09:30.745Z,22.70
2018-06-30T21:11:59.648Z,22.70
2018-06-30T21:14:29.287Z,22.70
2018-06-30T21:16:58.060Z,22.70
2018-06-30T21:19:26.785Z,22.60
2018-06-30T21:21:55.422Z,22.60
2018-06-30T21:24:24.083Z,22.60
2018-06-30T21:26:52.864Z,22.50
2018-06-30T21:29:21.535Z,22.40
2018-06-30T21:31:50.160Z,22.30
2018-06-30T21:34:18.831Z,22.10
2018-06-30T21:36:47.535Z,21.90
2018-06-30T21:39:16.186Z,21.60
2018-06-30T21:41:44.834Z,21.50
2018-06-30T21:44:13.405Z,21.50
2018-06-30T21:46:42.229Z,21.40
2018-06-30T21:49:11.188Z,21.40
2018-06-30T21:51:40.116Z,21.40
2018-06-30T21:54:10.278Z,21.40
2018-06-30T21:56:39.033Z,21.50
2018-06-30T21:59:07.916Z,21.40
2018-06-30T22:01:37.634Z,21.40
2018-06-30T22:04:07.351Z,21.40
2018-06-30T22:06:36.070Z,21.20
2018-06-30T22:09:08.134Z,21.20
2018-06-30T22:11:36.844Z,21.10
2018-06-30T22:14:05.655Z,21.20
2018-06-30T22:16:34.547Z,21.10
2018-06-30T22:19:03.486Z,21.00
2018-06-30T22:21:32.449Z,20.90
2018-06-30T22:24:01.306Z,20.90
2018-06-30T22:26:30.443Z,20.80
2018-06-30T22:28:59.296Z,20.70
2018-06-30T22:31:28.287Z,20.70
2018-06-30T22:33:57.281Z,20.60
2018-06-30T22:36:25.999Z,20.50
2018-06-30T22:38:54.628Z,20.50
2018-06-30T22:41:23.349Z,20.50
2018-06-30T22:43:52.046Z,20.50
2018-06-30T22:46:20.878Z,20.60
2018-06-30T22:48:49.815Z,20.50
2018-06-30T22:51:18.701Z,20.50
2018-06-30T22:53:47.747Z,20.40
2018-06-30T22:56:16.730Z,20.30
2018-06-30T22:58:45.672Z,20.30
2018-06-30T23:01:14.652Z,20.30
2018-06-30T23:03:43.598Z,20.20
2018-06-30T23:06:12.256Z,20.30
2018-06-30T23:08:46.486Z,20.40
2018-06-30T23:11:15.064Z,20.40
2018-06-30T23:13:43.633Z,20.40
2018-06-30T23:16:12.184Z,20.30
2018-06-30T23:18:40.746Z,20.30
2018-06-30T23:21:09.368Z,20.30
2018-06-30T23:23:37.967Z,20.20
2018-06-30T23:26:06.739Z,20.20
2018-06-30T23:28:35.655Z,20.30
2018-06-30T23:31:04.601Z,20.40
2018-06-30T23:33:33.435Z,20.30
2018-06-30T23:36:02.163Z,20.20
2018-06-30T23:38:30.757Z,20.20
2018-06-30T23:40:59.315Z,20.20
2018-06-30T23:43:27.845Z,20.20
2018-06-30T23:45:56.615Z,20.20
2018-06-30T23:48:25.488Z,20.10
2018-06-30T23:50:54.385Z,20.00
2018-06-30T23:53:23.247Z,19.90
2018-06-30T23:55:51.948Z,19.90
2018-06-30T23:58:20.525Z,19.80
